createdAt,value
2022-09-06T00:01:18.709Z,19.80
2022-09-06T00:03:47.646Z,19.80
2022-09-06T00:06:18.019Z,19.80
2022-09-06T00:08:48.332Z,19.90
2022-09-06T00:11:19.385Z,20.00
2022-09-06T00:13:48.755Z,20.10
2022-09-06T00:16:27.281Z,20.10
2022-09-06T00:18:58.489Z,20.20
2022-09-06T00:21:29.244Z,20.30
2022-09-06T00:23:57.825Z,20.30
2022-09-06T00:26:27.675Z,20.30
2022-09-06T00:28:56.227Z,20.20
2022-09-06T00:31:27.219Z,20.20
2022-09-06T00:33:56.347Z,20.10
2022-09-06T00:36:25.052Z,20.10
2022-09-06T00:38:56.706Z,20.00
2022-09-06T00:41:25.300Z,20.00
2022-09-06T00:43:58.070Z,20.00
2022-09-06T00:46:30.578Z,20.00
2022-09-06T00:49:04.272Z,20.00
2022-09-06T00:51:34.442Z,20.00
2022-09-06T00:54:05.074Z,20.00
2022-09-06T00:56:35.520Z,20.00
2022-09-06T00:59:08.814Z,20.10
2022-09-06T01:01:37.456Z,20.30
2022-09-06T01:04:06.386Z,20.40
2022-09-06T01:06:46.063Z,20.50
2022-09-06T01:09:28.273Z,20.70
2022-09-06T01:12:09.740Z,20.80
2022-09-06T01:14:53.285Z,21.00
2022-09-06T01:17:33.316Z,21.10
2022-09-06T01:20:34.555Z,21.20
2022-09-06T01:23:36.362Z,21.20
2022-09-06T01:26:15.310Z,21.20
2022-09-06T01:28:46.346Z,21.20
2022-09-06T01:31:28.796Z,21.20
2022-09-06T01:34:17.599Z,21.20
2022-09-06T01:37:09.027Z,21.20
2022-09-06T01:39:39.332Z,21.30
2022-09-06T01:42:11.443Z,21.30
2022-09-06T01:44:45.528Z,21.30
2022-09-06T01:47:27.963Z,21.20
2022-09-06T01:50:12.538Z,21.30
2022-09-06T01:52:57.738Z,21.20
2022-09-06T01:55:33.842Z,21.20
2022-09-06T01:58:27.120Z,21.20
2022-09-06T02:01:02.735Z,21.10
2022-09-06T02:03:37.976Z,21.10
2022-09-06T02:06:10.217Z,21.00
2022-09-06T02:08:43.026Z,21.00
2022-09-06T02:11:14.547Z,21.00
2022-09-06T02:13:49.532Z,21.00
2022-09-06T02:16:23.559Z,21.00
2022-09-06T02:18:56.490Z,21.00
2022-09-06T02:21:29.459Z,20.90
2022-09-06T02:24:01.915Z,21.00
2022-09-06T02:26:33.944Z,21.00
2022-09-06T02:29:02.905Z,21.00
2022-09-06T02:31:37.212Z,21.00
2022-09-06T02:34:06.904Z,21.00
2022-09-06T02:36:37.818Z,21.00
2022-09-06T02:39:06.715Z,21.00
2022-09-06T02:41:35.872Z,21.10
2022-09-06T02:44:07.183Z,21.00
2022-09-06T02:46:37.046Z,21.10
2022-09-06T02:49:06.716Z,21.10
2022-09-06T02:51:40.676Z,21.00
2022-09-06T02:54:09.504Z,21.00
2022-09-06T02:56:38.318Z,21.00
2022-09-06T02:59:06.803Z,21.00
2022-09-06T03:01:36.846Z,21.00
2022-09-06T03:04:05.487Z,20.90
2022-09-06T03:06:34.227Z,20.90
2022-09-06T03:09:02.939Z,20.90
2022-09-06T03:11:31.490Z,20.90
2022-09-06T03:14:00.012Z,20.90
2022-09-06T03:16:28.661Z,20.80
2022-09-06T03:18:58.536Z,20.80
2022-09-06T03:21:27.241Z,20.80
2022-09-06T03:23:56.086Z,20.70
2022-09-06T03:26:24.604Z,20.70
2022-09-06T03:28:53.045Z,20.60
2022-09-06T03:31:21.677Z,20.50
2022-09-06T03:33:50.412Z,20.50
2022-09-06T03:36:20.277Z,20.40
2022-09-06T03:38:48.755Z,20.30
2022-09-06T03:41:17.279Z,20.20
2022-09-06T03:43:45.832Z,20.10
2022-09-06T03:46:14.280Z,20.00
2022-09-06T03:48:42.773Z,20.00
2022-09-06T03:51:11.373Z,19.90
2022-09-06T03:53:41.341Z,19.90
2022-09-06T03:56:09.845Z,19.80
2022-09-06T03:58:38.257Z,19.80
2022-09-06T04:01:11.091Z,19.80
2022-09-06T04:03:40.765Z,19.80
2022-09-06T04:06:09.825Z,19.70
2022-09-06T04:08:40.115Z,19.60
2022-09-06T04:11:09.055Z,19.60
2022-09-06T04:13:38.191Z,19.50
2022-09-06T04:16:07.693Z,19.50
2022-09-06T04:18:36.432Z,19.40
2022-09-06T04:21:05.988Z,19.40
2022-09-06T04:23:39.684Z,19.40
2022-09-06T04:26:09.936Z,19.30
2022-09-06T04:28:38.403Z,19.30
2022-09-06T04:31:07.180Z,19.30
2022-09-06T04:33:38.543Z,19.20
2022-09-06T04:36:10.714Z,19.20
2022-09-06T04:38:41.015Z,19.20
2022-09-06T04:41:12.785Z,19.20
2022-09-06T04:43:41.474Z,19.20
2022-09-06T04:46:16.398Z,19.20
2022-09-06T04:48:45.082Z,19.10
2022-09-06T04:51:13.691Z,19.10
2022-09-06T04:53:42.421Z,19.10
2022-09-06T04:56:17.396Z,19.10
2022-09-06T04:58:47.645Z,19.10
2022-09-06T05:01:16.913Z,19.10
2022-09-06T05:03:45.631Z,19.10
2022-09-06T05:06:19.420Z,19.00
2022-09-06T05:08:48.576Z,19.00
2022-09-06T05:11:18.636Z,19.00
2022-09-06T05:13:47.885Z,19.00
2022-09-06T05:16:17.128Z,19.00
2022-09-06T05:18:45.646Z,19.00
2022-09-06T05:21:14.293Z,19.00
2022-09-06T05:23:42.957Z,18.90
2022-09-06T05:26:11.554Z,18.90
2022-09-06T05:28:41.362Z,18.90
2022-09-06T05:31:12.015Z,18.90
2022-09-06T05:33:40.774Z,18.90
2022-09-06T05:36:09.848Z,18.90
2022-09-06T05:38:38.767Z,18.90
2022-09-06T05:41:07.235Z,18.90
2022-09-06T05:43:35.718Z,19.00
2022-09-06T05:46:06.548Z,19.00
2022-09-06T05:48:37.160Z,19.10
2022-09-06T05:51:07.929Z,19.20
2022-09-06T05:53:37.422Z,19.20
2022-09-06T05:56:06.806Z,19.30
2022-09-06T05:58:35.470Z,19.40
2022-09-06T06:01:15.439Z,19.50
2022-09-06T06:03:44.595Z,19.70
2022-09-06T06:06:14.268Z,19.80
2022-09-06T06:08:43.494Z,19.80
2022-09-06T06:11:13.039Z,20.00
2022-09-06T06:13:43.237Z,20.00
2022-09-06T06:16:18.131Z,20.10
2022-09-06T06:18:51.938Z,20.10
2022-09-06T06:21:23.371Z,20.20
2022-09-06T06:23:53.314Z,20.30
2022-09-06T06:26:23.971Z,20.30
2022-09-06T06:28:53.444Z,20.40
2022-09-06T06:31:26.531Z,20.50
2022-09-06T06:33:55.159Z,20.60
2022-09-06T06:36:26.805Z,20.80
2022-09-06T06:38:56.494Z,20.90
2022-09-06T06:41:28.096Z,21.00
2022-09-06T06:43:57.958Z,21.20
2022-09-06T06:46:30.237Z,21.30
2022-09-06T06:49:01.306Z,21.40
2022-09-06T06:51:32.433Z,21.50
2022-09-06T06:54:02.849Z,21.70
2022-09-06T06:56:32.983Z,21.80
2022-09-06T06:59:06.881Z,22.00
2022-09-06T07:01:38.062Z,22.20
2022-09-06T07:04:07.299Z,22.30
2022-09-06T07:12:26.730Z,22.60
2022-09-06T07:14:55.733Z,22.80
2022-09-06T07:17:25.656Z,22.90
2022-09-06T07:22:42.946Z,23.30
2022-09-06T07:25:15.318Z,23.50
2022-09-06T07:27:47.085Z,23.70
2022-09-06T07:30:17.920Z,24.00
2022-09-06T07:32:49.054Z,24.20
2022-09-06T07:35:23.219Z,24.30
2022-09-06T07:37:56.919Z,24.40
2022-09-06T07:40:27.231Z,24.60
2022-09-06T07:42:58.932Z,24.70
2022-09-06T07:45:28.045Z,24.70
2022-09-06T07:48:00.025Z,24.80
2022-09-06T07:50:47.519Z,24.90
2022-09-06T07:53:29.207Z,25.00
2022-09-06T07:56:00.690Z,25.00
2022-09-06T07:58:30.535Z,25.10
2022-09-06T08:01:21.319Z,25.10
2022-09-06T08:03:51.334Z,25.20
2022-09-06T08:06:19.989Z,25.30
2022-09-06T08:08:57.536Z,25.30
2022-09-06T08:11:28.272Z,25.40
2022-09-06T08:13:58.446Z,25.30
2022-09-06T08:16:28.971Z,25.20
2022-09-06T08:19:01.025Z,25.10
2022-09-06T08:21:32.201Z,25.00
2022-09-06T08:24:02.214Z,24.80
2022-09-06T08:26:32.118Z,24.80
2022-09-06T08:29:03.934Z,24.70
2022-09-06T08:31:34.084Z,24.80
2022-09-06T08:34:05.439Z,24.80
2022-09-06T08:36:34.554Z,24.80
2022-09-06T08:39:05.116Z,24.90
2022-09-06T08:41:41.895Z,24.90
2022-09-06T08:47:05.282Z,24.90
2022-09-06T08:49:39.463Z,25.00
2022-09-06T08:52:25.903Z,25.10
2022-09-06T08:55:02.139Z,25.10
2022-09-06T08:57:49.710Z,25.10
2022-09-06T09:00:20.406Z,25.10
2022-09-06T09:02:53.166Z,25.10
2022-09-06T09:05:27.125Z,25.00
2022-09-06T09:08:06.306Z,24.90
2022-09-06T09:10:42.645Z,24.80
2022-09-06T09:13:20.569Z,24.80
2022-09-06T09:15:49.171Z,24.70
2022-09-06T09:18:23.211Z,24.80
2022-09-06T09:20:54.114Z,24.80
2022-09-06T09:23:23.624Z,24.90
2022-09-06T09:25:54.719Z,25.00
2022-09-06T09:28:26.167Z,25.10
2022-09-06T09:30:56.366Z,25.30
2022-09-06T09:33:28.258Z,25.30
2022-09-06T09:36:00.730Z,25.40
2022-09-06T09:38:31.829Z,25.40
2022-09-06T09:41:03.526Z,25.40
2022-09-06T09:43:34.096Z,25.50
2022-09-06T09:46:15.785Z,25.60
2022-09-06T09:49:01.446Z,25.80
2022-09-06T09:51:33.978Z,25.90
2022-09-06T09:54:04.955Z,26.20
2022-09-06T09:56:51.700Z,26.30
2022-09-06T09:59:26.713Z,26.40
2022-09-06T10:02:00.175Z,26.60
2022-09-06T10:04:44.751Z,26.60
2022-09-06T10:07:18.554Z,26.80
2022-09-06T10:09:49.207Z,26.90
2022-09-06T10:12:21.174Z,26.90
2022-09-06T10:14:51.040Z,26.90
2022-09-06T10:17:22.780Z,26.90
2022-09-06T10:19:51.385Z,27.10
2022-09-06T10:22:29.316Z,27.20
2022-09-06T10:25:34.141Z,27.30
2022-09-06T10:28:28.710Z,27.40
2022-09-06T10:31:36.030Z,27.60
2022-09-06T10:34:26.737Z,27.70
2022-09-06T10:37:06.819Z,27.90
2022-09-06T10:39:58.286Z,28.00
2022-09-06T10:42:36.542Z,28.10
2022-09-06T10:45:17.980Z,28.30
2022-09-06T10:47:57.842Z,28.50
2022-09-06T10:50:36.343Z,28.80
2022-09-06T10:53:16.525Z,29.20
2022-09-06T10:55:50.630Z,29.70
2022-09-06T10:58:26.866Z,30.40
2022-09-06T11:00:56.940Z,30.90
2022-09-06T11:06:26.827Z,31.70
2022-09-06T11:09:04.201Z,32.20
2022-09-06T11:11:41.688Z,32.80
2022-09-06T11:14:14.537Z,33.30
2022-09-06T11:16:49.485Z,33.80
2022-09-06T11:19:23.382Z,34.10
2022-09-06T11:22:26.046Z,34.10
2022-09-06T11:25:30.410Z,34.00
2022-09-06T11:28:02.697Z,33.90
2022-09-06T11:30:32.885Z,34.10
2022-09-06T11:33:17.389Z,34.10
2022-09-06T11:35:48.989Z,34.10
2022-09-06T11:38:24.549Z,34.10
2022-09-06T11:41:00.712Z,34.20
2022-09-06T11:43:48.563Z,34.30
2022-09-06T11:46:54.510Z,34.70
2022-09-06T11:49:31.897Z,35.20
2022-09-06T11:52:00.785Z,35.50
2022-09-06T11:54:39.429Z,35.50
2022-09-06T11:57:16.286Z,35.10
2022-09-06T12:00:01.988Z,34.60
2022-09-06T12:02:37.436Z,34.30
2022-09-06T12:05:33.588Z,34.10
2022-09-06T12:08:36.882Z,33.90
2022-09-06T12:11:25.607Z,33.70
2022-09-06T12:14:00.179Z,33.90
2022-09-06T12:17:27.997Z,34.50
2022-09-06T12:20:05.972Z,35.60
2022-09-06T12:23:05.074Z,36.80
2022-09-06T12:25:59.024Z,38.00
2022-09-06T12:28:40.458Z,38.20
2022-09-06T12:31:30.870Z,38.20
2022-09-06T12:34:09.917Z,37.90
2022-09-06T12:36:50.671Z,37.60
2022-09-06T12:39:21.907Z,37.40
2022-09-06T12:41:55.277Z,37.30
2022-09-06T12:44:33.166Z,37.20
2022-09-06T12:47:08.812Z,37.00
2022-09-06T12:49:39.063Z,36.50
2022-09-06T12:52:09.792Z,36.10
2022-09-06T12:54:45.557Z,35.80
2022-09-06T12:57:16.188Z,35.90
2022-09-06T12:59:53.825Z,35.80
2022-09-06T13:02:28.870Z,35.60
2022-09-06T13:05:05.480Z,35.40
2022-09-06T13:07:36.660Z,35.20
2022-09-06T13:10:05.638Z,35.40
2022-09-06T13:12:35.909Z,35.90
2022-09-06T13:15:12.840Z,36.70
2022-09-06T13:17:41.685Z,37.30
2022-09-06T13:20:22.856Z,37.20
2022-09-06T13:22:52.697Z,36.70
2022-09-06T13:25:26.660Z,36.10
2022-09-06T13:28:01.630Z,35.60
2022-09-06T13:30:49.023Z,35.90
2022-09-06T13:33:25.718Z,36.60
2022-09-06T13:36:09.568Z,37.20
2022-09-06T13:38:42.624Z,37.60
2022-09-06T13:41:37.836Z,37.90
2022-09-06T13:44:08.126Z,38.30
2022-09-06T13:46:37.412Z,38.80
2022-09-06T13:49:06.205Z,39.50
2022-09-06T13:51:38.889Z,40.40
2022-09-06T13:54:08.997Z,41.20
2022-09-06T13:56:37.967Z,41.50
2022-09-06T13:59:07.723Z,41.70
2022-09-06T14:01:36.246Z,41.90
2022-09-06T14:04:05.319Z,42.00
2022-09-06T14:06:37.120Z,41.90
2022-09-06T14:09:07.636Z,41.90
2022-09-06T14:11:37.266Z,42.00
2022-09-06T14:14:06.723Z,41.90
2022-09-06T14:16:35.674Z,41.80
2022-09-06T14:19:04.235Z,41.80
2022-09-06T14:21:32.954Z,41.70
2022-09-06T14:24:04.565Z,41.70
2022-09-06T14:26:34.194Z,41.90
2022-09-06T14:29:03.019Z,42.10
2022-09-06T14:31:32.704Z,42.20
2022-09-06T14:34:04.145Z,42.20
2022-09-06T14:36:33.571Z,42.10
2022-09-06T14:39:03.903Z,42.00
2022-09-06T14:41:32.495Z,41.80
2022-09-06T14:44:01.856Z,41.70
2022-09-06T14:46:31.192Z,41.80
2022-09-06T14:49:01.839Z,42.00
2022-09-06T14:51:32.013Z,42.10
2022-09-06T14:54:05.487Z,42.20
2022-09-06T14:56:34.636Z,42.20
2022-09-06T14:59:03.828Z,41.90
2022-09-06T15:01:38.046Z,41.70
2022-09-06T15:04:09.807Z,41.60
2022-09-06T15:06:41.249Z,41.40
2022-09-06T15:09:13.954Z,41.20
2022-09-06T15:11:46.551Z,41.10
2022-09-06T15:14:18.075Z,41.20
2022-09-06T15:16:49.880Z,41.30
2022-09-06T15:19:23.601Z,41.50
2022-09-06T15:21:53.447Z,41.60
2022-09-06T15:24:23.962Z,41.80
2022-09-06T15:26:53.855Z,42.10
2022-09-06T15:29:22.820Z,42.30
2022-09-06T15:31:52.141Z,42.60
2022-09-06T15:34:22.115Z,42.80
2022-09-06T15:36:51.419Z,42.60
2022-09-06T15:39:20.600Z,42.40
2022-09-06T15:41:52.028Z,42.20
2022-09-06T15:44:21.949Z,42.10
2022-09-06T15:46:52.385Z,41.80
2022-09-06T15:49:27.505Z,41.70
2022-09-06T15:51:57.594Z,41.70
2022-09-06T15:54:46.353Z,41.70
2022-09-06T15:57:18.404Z,41.70
2022-09-06T15:59:47.131Z,41.60
2022-09-06T16:02:16.976Z,41.40
2022-09-06T16:04:46.983Z,41.40
2022-09-06T16:07:15.570Z,41.60
2022-09-06T16:09:44.152Z,41.70
2022-09-06T16:12:13.267Z,41.80
2022-09-06T16:14:43.189Z,41.70
2022-09-06T16:17:12.398Z,41.40
2022-09-06T16:19:41.107Z,41.10
2022-09-06T16:22:09.606Z,40.80
2022-09-06T16:24:39.601Z,40.70
2022-09-06T16:27:08.461Z,40.60
2022-09-06T16:29:38.548Z,40.60
2022-09-06T16:32:10.195Z,40.60
2022-09-06T16:34:39.427Z,40.70
2022-09-06T16:37:08.845Z,40.70
2022-09-06T16:39:38.465Z,40.50
2022-09-06T16:42:08.176Z,40.10
2022-09-06T16:44:37.687Z,39.50
2022-09-06T16:47:06.522Z,38.90
2022-09-06T16:49:36.619Z,38.20
2022-09-06T16:52:05.359Z,37.80
2022-09-06T16:54:34.052Z,37.70
2022-09-06T16:57:03.152Z,37.90
2022-09-06T16:59:31.842Z,38.20
2022-09-06T17:02:00.657Z,38.50
2022-09-06T17:04:29.365Z,38.70
2022-09-06T17:06:59.412Z,38.70
2022-09-06T17:09:28.131Z,38.60
2022-09-06T17:11:56.737Z,38.40
2022-09-06T17:14:26.893Z,38.10
2022-09-06T17:17:08.871Z,37.80
2022-09-06T17:19:38.624Z,37.50
2022-09-06T17:22:10.299Z,36.80
2022-09-06T17:24:42.931Z,36.10
2022-09-06T17:27:11.886Z,35.20
2022-09-06T17:29:43.937Z,34.40
2022-09-06T17:32:12.983Z,33.60
2022-09-06T17:34:42.517Z,33.00
2022-09-06T17:37:15.736Z,32.30
2022-09-06T17:39:44.452Z,31.80
2022-09-06T17:42:13.255Z,31.30
2022-09-06T17:44:42.143Z,30.90
2022-09-06T17:47:13.446Z,30.50
2022-09-06T17:49:43.036Z,30.20
2022-09-06T17:52:14.278Z,29.90
2022-09-06T17:54:43.038Z,29.60
2022-09-06T17:57:11.758Z,29.40
2022-09-06T17:59:40.577Z,29.20
2022-09-06T18:02:09.345Z,28.90
2022-09-06T18:04:38.257Z,28.70
2022-09-06T18:07:06.959Z,28.50
2022-09-06T18:09:37.917Z,28.30
2022-09-06T18:12:06.977Z,28.10
2022-09-06T18:14:35.616Z,27.80
2022-09-06T18:17:04.581Z,27.60
2022-09-06T18:19:33.444Z,27.40
2022-09-06T18:22:01.994Z,27.30
2022-09-06T18:24:30.544Z,27.10
2022-09-06T18:27:02.874Z,27.00
2022-09-06T18:29:31.551Z,26.90
2022-09-06T18:32:00.076Z,26.70
2022-09-06T18:34:28.875Z,26.60
2022-09-06T18:36:57.374Z,26.50
2022-09-06T18:39:26.058Z,26.40
2022-09-06T18:42:07.208Z,26.30
2022-09-06T18:44:37.549Z,26.20
2022-09-06T18:47:07.837Z,26.10
2022-09-06T18:49:40.549Z,26.00
2022-09-06T18:52:12.035Z,25.90
2022-09-06T18:54:40.587Z,25.80
2022-09-06T18:57:09.194Z,25.70
2022-09-06T18:59:39.110Z,25.60
2022-09-06T19:02:08.003Z,25.50
2022-09-06T19:04:36.704Z,25.40
2022-09-06T19:07:05.571Z,25.30
2022-09-06T19:09:34.407Z,25.10
2022-09-06T19:12:04.899Z,25.00
2022-09-06T19:14:33.809Z,24.90
2022-09-06T19:17:04.050Z,24.80
2022-09-06T19:19:32.660Z,24.80
2022-09-06T19:22:01.647Z,24.70
2022-09-06T19:24:30.267Z,24.60
2022-09-06T19:26:58.840Z,24.60
2022-09-06T19:29:27.442Z,24.50
2022-09-06T19:31:55.906Z,24.40
2022-09-06T19:34:25.960Z,24.30
2022-09-06T19:36:55.470Z,24.30
2022-09-06T19:39:32.307Z,24.20
2022-09-06T19:42:03.430Z,24.10
2022-09-06T19:44:32.689Z,24.00
2022-09-06T19:47:01.271Z,23.90
2022-09-06T19:49:31.441Z,23.80
2022-09-06T19:51:59.851Z,23.70
2022-09-06T19:54:28.520Z,23.70
2022-09-06T19:56:57.126Z,23.60
2022-09-06T19:59:25.564Z,23.50
2022-09-06T20:01:54.017Z,23.50
2022-09-06T20:04:22.721Z,23.50
2022-09-06T20:06:52.756Z,23.50
2022-09-06T20:09:21.725Z,23.50
2022-09-06T20:11:50.190Z,23.60
2022-09-06T20:14:19.059Z,23.60
2022-09-06T20:16:49.996Z,23.70
2022-09-06T20:19:18.640Z,23.70
2022-09-06T20:21:47.154Z,23.70
2022-09-06T20:24:16.998Z,23.70
2022-09-06T20:26:45.502Z,23.70
2022-09-06T20:29:14.015Z,23.70
2022-09-06T20:31:42.945Z,23.70
2022-09-06T20:34:12.941Z,23.60
2022-09-06T20:36:42.303Z,23.60
2022-09-06T20:39:11.035Z,23.60
2022-09-06T20:41:40.900Z,23.50
2022-09-06T20:44:09.416Z,23.50
2022-09-06T20:46:39.936Z,23.40
2022-09-06T20:49:09.276Z,23.40
2022-09-06T20:51:40.522Z,23.30
2022-09-06T20:54:09.543Z,23.30
2022-09-06T20:56:40.887Z,23.20
2022-09-06T20:59:13.097Z,23.20
2022-09-06T21:01:43.712Z,23.20
2022-09-06T21:04:14.249Z,23.10
2022-09-06T21:06:43.116Z,23.10
2022-09-06T21:09:14.172Z,23.10
2022-09-06T21:11:45.306Z,23.00
2022-09-06T21:14:14.283Z,23.00
2022-09-06T21:16:43.612Z,22.90
2022-09-06T21:19:13.108Z,22.90
2022-09-06T21:21:42.213Z,22.90
2022-09-06T21:24:11.884Z,22.80
2022-09-06T21:26:41.000Z,22.70
2022-09-06T21:29:15.613Z,22.70
2022-09-06T21:31:44.153Z,22.60
2022-09-06T21:34:17.007Z,22.50
2022-09-06T21:36:50.405Z,22.50
2022-09-06T21:39:22.855Z,22.40
2022-09-06T21:41:55.185Z,22.40
2022-09-06T21:44:27.584Z,22.40
2022-09-06T21:46:59.157Z,22.40
2022-09-06T21:49:30.225Z,22.30
2022-09-06T21:52:01.776Z,22.30
2022-09-06T21:54:31.223Z,22.30
2022-09-06T21:56:59.765Z,22.30
2022-09-06T21:59:29.663Z,22.30
2022-09-06T22:01:58.602Z,22.30
2022-09-06T22:04:27.281Z,22.40
2022-09-06T22:06:55.842Z,22.40
2022-09-06T22:09:24.325Z,22.40
2022-09-06T22:11:53.031Z,22.40
2022-09-06T22:14:21.446Z,22.50
2022-09-06T22:16:52.102Z,22.50
2022-09-06T22:19:20.555Z,22.50
2022-09-06T22:21:48.967Z,22.60
2022-09-06T22:24:17.607Z,22.50
2022-09-06T22:26:46.079Z,22.50
2022-09-06T22:29:15.845Z,22.50
2022-09-06T22:31:44.727Z,22.50
2022-09-06T22:34:14.755Z,22.50
2022-09-06T22:36:43.751Z,22.40
2022-09-06T22:39:16.034Z,22.40
2022-09-06T22:41:46.017Z,22.30
2022-09-06T22:44:15.134Z,22.30
2022-09-06T22:46:43.673Z,22.30
2022-09-06T22:49:12.439Z,22.20
2022-09-06T22:51:42.224Z,22.10
2022-09-06T22:54:10.850Z,22.10
2022-09-06T22:56:39.438Z,22.00
2022-09-06T22:59:08.231Z,21.90
2022-09-06T23:01:39.306Z,21.80
2022-09-06T23:04:08.301Z,21.80
2022-09-06T23:06:38.055Z,21.70
2022-09-06T23:09:08.045Z,21.70
2022-09-06T23:11:36.508Z,21.70
2022-09-06T23:14:05.171Z,21.70
2022-09-06T23:16:33.821Z,21.60
2022-09-06T23:19:02.418Z,21.60
2022-09-06T23:21:30.830Z,21.60
2022-09-06T23:24:00.274Z,21.60
2022-09-06T23:26:32.862Z,21.60
2022-09-06T23:29:02.331Z,21.60
2022-09-06T23:31:32.843Z,21.60
2022-09-06T23:34:02.858Z,21.60
2022-09-06T23:36:32.257Z,21.50
2022-09-06T23:39:02.611Z,21.50
2022-09-06T23:41:32.917Z,21.40
2022-09-06T23:44:03.356Z,21.30
2022-09-06T23:46:32.403Z,21.20
2022-09-06T23:49:01.756Z,21.20
2022-09-06T23:51:31.178Z,21.20
2022-09-06T23:53:59.729Z,21.10
2022-09-06T23:56:28.405Z,21.10
2022-09-06T23:58:58.409Z,21.10
